Meath Environmental Platform

Observations for Trim Market St

Time AQI Temp °C Hum % Pres Pa CO μg/m³ H₂S μg/m³ NO μg/m³ NO₂ μg/m³ O₃ μg/m³ SO₂ μg/m³ PM1 μg/m³ PM2.5 μg/m³ PM10 μg/m³
Saturday 15 August 2026
03:06 2 17.5 70 55,875 0.04 0 1.41 3.8 57.17 0 0 1.13 2.49
02:59 2 17.6 70 55,750 0.06 0 1.48 6.19 55.67 0 0 1.12 2.51
02:58 2 17.6 70 55,721 0.05 0 1.48 4.94 54.75 0 0 1.12 2.5
02:55 2 17.6 70 55,664 0.08 0 2.05 4.82 54.31 0 0 1.12 2.5
02:54 2 17.6 70 55,654 0.06 0 1.91 5.64 53.39 0 0 1.12 2.51
02:53 2 17.7 70 55,632 0.04 0 1.94 5.2 54.68 0 0 1.11 2.51
02:52 2 17.6 70 55,611 0.08 0 2.06 5.87 53.67 0 0 1.11 2.51
02:51 2 17.7 70 55,579 0.1 0 1.76 11.64 41.91 0 0 1.6 3.14
02:50 2 17.6 70 55,539 0.05 0 1.44 4.53 54.21 0 0 1.11 2.52
02:49 2 17.7 70 55,493 0.05 0 1.47 4.47 55.93 0 0 1.11 2.52
02:48 2 17.7 70 55,452 0.05 0 1.44 4.71 55.24 0 0 1.11 2.52
02:47 2 17.7 70 55,414 0.05 0 1.48 5.39 54.8 0 0 1.11 2.52
02:46 2 17.7 70 55,369 0.04 0 1.51 4.24 55.51 0 0 1.11 2.52
02:45 2 17.7 70 55,310 0.06 0 1.53 5.82 54.7 0 0 1.11 2.52
02:44 2 17.7 70 55,269 0.06 0 1.44 5.41 57.2 0 0 1.1 2.53
02:43 2 17.7 70 55,222 0.06 0 1.42 5.07 53.82 0 0 1.59 3.15
02:42 2 17.7 70 55,178 0.06 0 1.43 4.53 55.98 0 0 2.07 3.78
02:39 2 17.8 70 55,091 0.05 0 1.43 5.75 55.82 0 0 1.1 2.53
02:38 2 17.7 70 55,064 0.05 0 1.48 3.75 56.11 0 0 1.1 2.53
02:34 2 17.8 70 55,016 0.06 0 1.38 5.38 55.65 0 0 1.58 3.16